Time;durP1;ratioP1;P1;durP2;ratioP2;P2;SDS_P1;SDS_P2;PMS_P1;PMS_P2;Temp;Humidity;BMP_temperature;BMP_pressure;BME280_temperature;BME280_humidity;BME280_pressure;Samples;Min_cycle;Max_cycle;Signal;HPM_P1;HPM_P2
2021/08/18 00:00:02;;;;;;;6.70;4.57;;;13.40;99.90;;;;;;479289;248;28354;-70
2021/08/18 00:02:03;;;;;;;5.97;4.60;;;13.40;99.90;;;;;;479314;248;28198;-70
2021/08/18 00:04:05;;;;;;;5.03;4.50;;;13.40;99.90;;;;;;479354;248;28207;-70
2021/08/18 00:06:06;;;;;;;4.73;4.10;;;13.40;99.90;;;;;;479346;248;28231;-70
2021/08/18 00:08:07;;;;;;;4.93;4.40;;;13.40;99.90;;;;;;479329;248;28551;-70
2021/08/18 00:10:08;;;;;;;5.47;4.20;;;13.40;99.90;;;;;;479313;248;28927;-70
2021/08/18 00:12:10;;;;;;;4.53;4.10;;;13.40;99.90;;;;;;479328;248;29756;-70
2021/08/18 00:14:11;;;;;;;5.33;4.00;;;13.40;99.90;;;;;;479331;248;28649;-70
2021/08/18 00:16:12;;;;;;;5.20;4.70;;;13.30;99.90;;;;;;479303;248;28255;-70
2021/08/18 00:18:13;;;;;;;5.83;4.53;;;13.30;99.90;;;;;;479343;248;28373;-70
2021/08/18 00:20:15;;;;;;;5.00;4.17;;;13.40;99.90;;;;;;479314;248;28232;-71
2021/08/18 00:22:16;;;;;;;5.87;4.60;;;13.40;99.90;;;;;;479332;248;28190;-70
2021/08/18 00:24:17;;;;;;;4.57;3.93;;;13.30;99.90;;;;;;479348;248;28412;-70
2021/08/18 00:26:18;;;;;;;5.50;4.50;;;13.30;99.90;;;;;;479339;248;28794;-70
2021/08/18 00:28:20;;;;;;;7.60;5.37;;;13.30;99.90;;;;;;479325;248;29033;-70
2021/08/18 00:30:21;;;;;;;5.00;4.50;;;13.40;99.90;;;;;;479295;248;28230;-70
2021/08/18 00:32:22;;;;;;;5.23;4.40;;;13.30;99.90;;;;;;479321;248;29420;-70
2021/08/18 00:34:23;;;;;;;6.13;5.10;;;13.30;99.90;;;;;;479334;248;28762;-70
2021/08/18 00:36:25;;;;;;;5.40;4.40;;;13.30;99.90;;;;;;479304;248;28828;-70
2021/08/18 00:38:26;;;;;;;6.23;4.93;;;13.30;99.90;;;;;;479284;248;28802;-70
2021/08/18 00:40:27;;;;;;;6.07;4.47;;;13.30;99.90;;;;;;479267;248;28235;-70
2021/08/18 00:42:28;;;;;;;4.80;4.30;;;13.30;99.90;;;;;;479331;248;28256;-70
2021/08/18 00:44:30;;;;;;;4.80;4.27;;;13.30;99.90;;;;;;479295;248;28353;-71
2021/08/18 00:46:31;;;;;;;5.20;4.70;;;13.30;99.90;;;;;;479290;248;28245;-70
2021/08/18 00:48:33;;;;;;;5.80;5.10;;;;;;;;;;479303;248;28220;-70
2021/08/18 00:50:35;;;;;;;5.07;4.50;;;13.30;99.90;;;;;;479337;247;27109;-70
2021/08/18 00:52:36;;;;;;;5.13;4.63;;;13.40;99.90;;;;;;479301;248;28184;-70
2021/08/18 00:54:37;;;;;;;4.70;4.30;;;13.40;99.90;;;;;;479312;248;28241;-70
2021/08/18 00:56:38;;;;;;;4.90;4.50;;;13.40;99.90;;;;;;479316;248;28346;-70
2021/08/18 00:58:41;;;;;;;4.50;4.10;;;;;;;;;;479314;248;28223;-70
2021/08/18 01:00:42;;;;;;;6.00;5.40;;;13.40;99.90;;;;;;479334;247;27670;-70
2021/08/18 01:02:46;;;;;;;5.47;4.93;;;;;;;;;;479318;248;28724;-70
2021/08/18 01:04:46;;;;;;;7.40;5.43;;;13.40;99.90;;;;;;479288;247;26516;-70
2021/08/18 01:06:47;;;;;;;6.10;5.20;;;13.40;99.90;;;;;;479333;248;28259;-70
2021/08/18 01:08:48;;;;;;;6.40;5.50;;;13.40;99.90;;;;;;479343;248;28713;-70
2021/08/18 01:10:49;;;;;;;6.70;5.17;;;13.40;99.90;;;;;;479326;248;28743;-70
2021/08/18 01:12:51;;;;;;;6.20;4.93;;;13.40;99.90;;;;;;479285;248;28763;-70
2021/08/18 01:14:52;;;;;;;5.17;4.67;;;13.40;99.90;;;;;;479320;248;28803;-70
2021/08/18 01:16:53;;;;;;;6.10;4.87;;;13.40;99.90;;;;;;479317;248;28397;-70
2021/08/18 01:18:54;;;;;;;6.80;4.93;;;13.40;99.90;;;;;;479339;248;28201;-70
2021/08/18 01:20:56;;;;;;;5.57;5.03;;;13.40;99.90;;;;;;479323;248;28378;-70
2021/08/18 01:22:57;;;;;;;6.50;5.43;;;13.40;99.90;;;;;;479308;248;28194;-70
2021/08/18 01:24:58;;;;;;;5.50;5.00;;;13.40;99.90;;;;;;479326;248;28227;-70
2021/08/18 01:26:59;;;;;;;6.13;5.40;;;13.40;99.90;;;;;;479322;248;28176;-70
2021/08/18 01:29:01;;;;;;;7.40;5.97;;;13.40;99.90;;;;;;479302;248;28361;-70
2021/08/18 01:31:02;;;;;;;8.00;5.90;;;13.40;99.90;;;;;;479342;248;28432;-70
2021/08/18 01:33:03;;;;;;;6.53;5.60;;;13.40;99.90;;;;;;479337;248;28209;-70
2021/08/18 01:35:04;;;;;;;5.17;4.73;;;13.40;99.90;;;;;;479352;248;28890;-70
2021/08/18 01:37:06;;;;;;;6.30;5.70;;;13.50;99.90;;;;;;479296;248;28783;-70
2021/08/18 01:39:07;;;;;;;6.03;5.43;;;13.40;99.90;;;;;;479351;248;28728;-70
2021/08/18 01:41:09;;;;;;;5.87;4.97;;;13.50;99.90;;;;;;479342;248;28439;-70
2021/08/18 01:43:09;;;;;;;7.10;5.33;;;13.50;99.90;;;;;;479313;248;28249;-70
2021/08/18 01:45:11;;;;;;;7.17;6.47;;;13.40;99.90;;;;;;479318;248;28223;-70
2021/08/18 01:47:12;;;;;;;10.00;6.60;;;13.50;99.90;;;;;;479336;248;28237;-70
2021/08/18 01:49:13;;;;;;;7.53;5.93;;;13.50;99.90;;;;;;479309;248;28324;-70
2021/08/18 01:51:14;;;;;;;9.20;6.40;;;13.40;99.90;;;;;;479300;248;28246;-70
2021/08/18 01:53:16;;;;;;;5.83;5.23;;;13.40;99.90;;;;;;479261;248;28518;-70
2021/08/18 01:55:17;;;;;;;8.83;7.50;;;13.50;99.90;;;;;;479303;248;28136;-70
2021/08/18 01:57:18;;;;;;;6.37;5.50;;;13.40;99.90;;;;;;479297;248;28716;-70
2021/08/18 01:59:19;;;;;;;7.67;6.27;;;13.40;99.90;;;;;;479283;248;29485;-70
2021/08/18 02:01:21;;;;;;;6.70;6.00;;;13.40;99.90;;;;;;479299;248;28738;-70
2021/08/18 02:03:22;;;;;;;6.67;5.73;;;13.40;99.90;;;;;;479299;248;28706;-70
2021/08/18 02:05:23;;;;;;;8.83;7.30;;;13.40;99.90;;;;;;479327;248;28128;-70
2021/08/18 02:07:24;;;;;;;6.87;6.17;;;13.40;99.90;;;;;;479333;248;28285;-70
2021/08/18 02:09:26;;;;;;;7.73;6.10;;;13.40;99.90;;;;;;479307;248;28332;-71
2021/08/18 02:11:27;;;;;;;7.33;5.93;;;13.40;99.90;;;;;;479303;248;28384;-70
2021/08/18 02:13:28;;;;;;;6.53;5.93;;;13.40;99.90;;;;;;479229;248;28241;-70
2021/08/18 02:15:30;;;;;;;6.90;5.90;;;13.40;99.90;;;;;;479266;248;28249;-70
2021/08/18 02:17:31;;;;;;;6.63;5.87;;;13.50;99.90;;;;;;479296;248;28162;-70
2021/08/18 02:19:32;;;;;;;8.30;6.70;;;13.50;99.90;;;;;;479286;248;28217;-70
2021/08/18 02:21:34;;;;;;;6.70;6.07;;;;;;;;;;479325;248;28153;-70
2021/08/18 02:23:36;;;;;;;8.10;6.43;;;13.50;99.90;;;;;;479300;247;26717;-70
2021/08/18 02:25:37;;;;;;;8.93;6.80;;;13.50;99.90;;;;;;479331;248;28804;-70
2021/08/18 02:27:38;;;;;;;6.80;6.10;;;13.50;99.90;;;;;;479303;248;28150;-71
2021/08/18 02:29:39;;;;;;;7.13;5.90;;;13.50;99.90;;;;;;479298;248;28378;-70
2021/08/18 02:31:41;;;;;;;7.20;6.10;;;13.40;99.90;;;;;;479296;248;28234;-70
2021/08/18 02:33:42;;;;;;;7.23;6.13;;;13.40;99.90;;;;;;479324;248;28325;-71
2021/08/18 02:35:43;;;;;;;9.73;6.60;;;13.40;99.90;;;;;;479310;248;28816;-70
2021/08/18 02:37:44;;;;;;;7.37;6.17;;;13.40;99.90;;;;;;479305;248;28962;-71
2021/08/18 02:39:46;;;;;;;9.87;6.80;;;13.40;99.90;;;;;;479295;248;28830;-70
2021/08/18 02:41:47;;;;;;;8.67;6.70;;;13.40;99.90;;;;;;479297;248;29471;-70
2021/08/18 02:43:48;;;;;;;8.33;7.20;;;13.50;99.90;;;;;;479312;248;28215;-71
2021/08/18 02:45:49;;;;;;;7.83;6.70;;;13.50;99.90;;;;;;479324;248;28265;-71
2021/08/18 02:47:52;;;;;;;13.33;7.80;;;;;;;;;;479305;246;28342;-71
2021/08/18 02:49:53;;;;;;;8.73;7.20;;;13.40;99.90;;;;;;479310;247;27817;-71
2021/08/18 02:51:54;;;;;;;9.30;7.30;;;13.50;99.90;;;;;;479317;248;28797;-70
2021/08/18 02:53:56;;;;;;;11.60;6.70;;;13.50;99.90;;;;;;479313;248;28700;-71
2021/08/18 02:55:57;;;;;;;7.97;6.87;;;13.40;99.90;;;;;;479264;248;28310;-71
2021/08/18 02:57:58;;;;;;;11.13;7.57;;;13.50;99.90;;;;;;479285;248;28248;-71
2021/08/18 02:59:59;;;;;;;9.20;7.47;;;13.50;99.90;;;;;;479311;248;28240;-71
2021/08/18 03:02:01;;;;;;;8.00;6.87;;;13.50;99.90;;;;;;479343;248;28129;-70
2021/08/18 03:04:02;;;;;;;7.80;6.43;;;13.50;99.90;;;;;;479362;248;28342;-70
2021/08/18 03:06:03;;;;;;;8.80;7.00;;;13.50;99.90;;;;;;479338;248;28206;-70
2021/08/18 03:08:04;;;;;;;10.70;7.27;;;13.50;99.90;;;;;;479334;248;28242;-70
2021/08/18 03:10:06;;;;;;;10.47;7.07;;;13.50;99.90;;;;;;479321;248;28162;-70
2021/08/18 03:12:07;;;;;;;10.93;7.60;;;13.50;99.90;;;;;;479360;248;28754;-70
2021/08/18 03:14:08;;;;;;;7.10;6.00;;;13.40;99.90;;;;;;479320;248;28728;-70
2021/08/18 03:16:09;;;;;;;8.13;6.80;;;13.40;99.90;;;;;;479313;248;28663;-70
2021/08/18 03:18:11;;;;;;;10.53;7.07;;;13.40;99.90;;;;;;479311;248;28222;-70
2021/08/18 03:20:13;;;;;;;9.10;6.70;;;13.50;99.90;;;;;;479338;248;28357;-70
2021/08/18 03:22:14;;;;;;;7.63;6.30;;;13.50;99.90;;;;;;479351;248;28197;-70
2021/08/18 03:24:16;;;;;;;8.70;6.13;;;13.50;99.90;;;;;;479316;248;28563;-70
2021/08/18 03:26:17;;;;;;;6.40;5.73;;;13.50;99.90;;;;;;479310;248;28869;-70
2021/08/18 03:28:18;;;;;;;6.87;6.17;;;13.40;99.90;;;;;;479349;248;28758;-70
2021/08/18 03:30:19;;;;;;;7.97;6.20;;;13.40;99.90;;;;;;479325;248;28806;-70
2021/08/18 03:32:21;;;;;;;6.43;5.63;;;13.50;99.90;;;;;;479287;248;28832;-70
2021/08/18 03:34:22;;;;;;;7.93;6.23;;;13.50;99.90;;;;;;479263;248;28301;-70
2021/08/18 03:36:23;;;;;;;6.00;5.40;;;13.40;99.90;;;;;;479301;248;28251;-70
2021/08/18 03:38:24;;;;;;;9.00;6.30;;;13.40;99.90;;;;;;479315;248;28468;-70
2021/08/18 03:40:27;;;;;;;6.27;5.50;;;;;;;;;;479312;248;28259;-70
2021/08/18 03:42:28;;;;;;;6.57;5.40;;;13.50;99.90;;;;;;479264;247;27083;-70
2021/08/18 03:44:29;;;;;;;8.43;5.90;;;13.50;99.90;;;;;;479319;248;28353;-70
2021/08/18 03:46:31;;;;;;;5.93;5.33;;;13.50;99.90;;;;;;479320;248;28259;-70
2021/08/18 03:48:32;;;;;;;6.50;5.33;;;13.40;99.90;;;;;;479299;248;28432;-71
2021/08/18 03:50:33;;;;;;;6.17;5.43;;;13.50;99.90;;;;;;479303;248;28416;-70
2021/08/18 03:52:34;;;;;;;7.70;6.10;;;13.50;99.90;;;;;;479278;248;28374;-70
2021/08/18 03:54:36;;;;;;;5.80;5.00;;;13.40;99.90;;;;;;479303;248;28297;-70
2021/08/18 03:56:37;;;;;;;6.00;5.33;;;13.50;99.90;;;;;;479284;248;28240;-70
2021/08/18 03:58:38;;;;;;;6.70;5.57;;;13.40;99.90;;;;;;479311;248;28119;-70
2021/08/18 04:00:39;;;;;;;7.20;5.33;;;13.50;99.90;;;;;;479272;248;28656;-70
2021/08/18 04:02:41;;;;;;;5.63;5.00;;;13.40;99.90;;;;;;479252;248;29560;-70
2021/08/18 04:04:42;;;;;;;7.37;6.13;;;13.40;99.90;;;;;;479294;248;28673;-70
2021/08/18 04:06:43;;;;;;;6.97;5.40;;;13.50;99.90;;;;;;479273;248;28900;-70
2021/08/18 04:08:46;;;;;;;7.20;5.63;;;;;;;;;;479274;246;28755;-69
2021/08/18 04:10:47;;;;;;;7.57;6.20;;;13.50;99.90;;;;;;479307;247;27122;-69
2021/08/18 04:12:48;;;;;;;6.60;5.30;;;13.50;99.90;;;;;;479287;248;28233;-70
2021/08/18 04:14:49;;;;;;;7.50;5.10;;;13.50;99.90;;;;;;479277;248;28261;-70
2021/08/18 04:16:51;;;;;;;8.63;5.87;;;13.50;99.90;;;;;;479267;248;28761;-71
2021/08/18 04:18:52;;;;;;;7.07;5.40;;;13.50;99.90;;;;;;479266;248;29002;-70
2021/08/18 04:20:53;;;;;;;7.73;5.87;;;13.50;99.90;;;;;;479316;248;28779;-69
2021/08/18 04:22:54;;;;;;;7.40;5.90;;;13.50;99.90;;;;;;479281;248;28860;-70
2021/08/18 04:24:56;;;;;;;6.73;5.80;;;13.50;99.90;;;;;;479296;248;28260;-70
2021/08/18 04:26:57;;;;;;;6.73;5.00;;;13.50;99.90;;;;;;479281;248;28324;-71
2021/08/18 04:28:58;;;;;;;6.03;4.73;;;13.50;99.90;;;;;;479286;248;28441;-70
2021/08/18 04:30:59;;;;;;;6.57;5.33;;;13.50;99.90;;;;;;479325;248;28494;-71
2021/08/18 04:33:01;;;;;;;5.63;4.80;;;13.50;99.90;;;;;;479288;248;28575;-70
2021/08/18 04:35:02;;;;;;;5.67;5.17;;;13.60;99.90;;;;;;479299;248;28291;-70
2021/08/18 04:37:03;;;;;;;7.47;6.70;;;13.60;99.90;;;;;;479281;248;28446;-70
2021/08/18 04:39:04;;;;;;;7.30;6.37;;;13.60;99.90;;;;;;479262;248;28226;-71
2021/08/18 04:41:06;;;;;;;6.57;5.87;;;13.50;99.90;;;;;;479307;248;28941;-70
2021/08/18 04:43:07;;;;;;;5.70;5.20;;;13.50;99.90;;;;;;479278;248;28665;-70
2021/08/18 04:45:08;;;;;;;5.63;5.13;;;13.60;99.90;;;;;;479323;248;28679;-72
2021/08/18 04:47:09;;;;;;;5.50;4.90;;;13.60;99.90;;;;;;479322;248;28609;-70
2021/08/18 04:49:11;;;;;;;5.70;5.10;;;13.60;99.90;;;;;;479308;248;28789;-70
2021/08/18 04:51:12;;;;;;;4.93;4.53;;;13.60;99.90;;;;;;479319;248;28693;-70
2021/08/18 04:53:14;;;;;;;6.70;5.57;;;;;;;;;;479270;248;28519;-70
2021/08/18 04:55:16;;;;;;;6.40;5.50;;;13.60;99.90;;;;;;479297;247;27679;-70
2021/08/18 04:57:17;;;;;;;6.33;5.20;;;13.60;99.90;;;;;;479313;247;28916;-70
2021/08/18 04:59:18;;;;;;;6.40;5.77;;;13.60;99.90;;;;;;479328;248;28941;-71
2021/08/18 05:01:19;;;;;;;6.60;5.50;;;13.70;99.90;;;;;;479118;248;28551;-70
2021/08/18 05:03:21;;;;;;;4.90;4.50;;;13.70;99.90;;;;;;479317;248;28333;-70
2021/08/18 05:05:22;;;;;;;5.87;5.23;;;13.70;99.90;;;;;;479292;248;28264;-72
2021/08/18 05:07:23;;;;;;;6.60;5.90;;;13.70;99.90;;;;;;479303;248;28569;-72
2021/08/18 05:09:24;;;;;;;7.37;5.43;;;13.60;99.90;;;;;;479287;248;28526;-71
2021/08/18 05:11:26;;;;;;;5.33;4.70;;;13.60;99.90;;;;;;479321;248;28529;-69
2021/08/18 05:13:27;;;;;;;6.03;4.70;;;13.70;99.90;;;;;;479299;248;28398;-72
2021/08/18 05:15:28;;;;;;;6.43;4.60;;;13.80;99.90;;;;;;479307;248;29298;-71
2021/08/18 05:17:29;;;;;;;7.27;5.40;;;13.80;99.90;;;;;;479321;248;29402;-70
2021/08/18 05:19:31;;;;;;;5.07;4.53;;;13.80;99.90;;;;;;479294;248;29059;-70
2021/08/18 05:21:32;;;;;;;5.60;5.07;;;13.80;99.90;;;;;;479328;248;28971;-70
2021/08/18 05:23:33;;;;;;;5.30;4.80;;;13.80;99.90;;;;;;479276;248;29030;-70
2021/08/18 05:25:34;;;;;;;4.57;4.10;;;13.80;99.90;;;;;;479315;248;28535;-70
2021/08/18 05:27:36;;;;;;;5.17;4.67;;;13.90;99.90;;;;;;479345;248;28517;-70
2021/08/18 05:29:37;;;;;;;5.70;5.07;;;13.90;99.90;;;;;;479295;248;28424;-71
2021/08/18 05:31:39;;;;;;;5.43;4.93;;;13.90;99.90;;;;;;479329;248;28450;-70
2021/08/18 05:33:39;;;;;;;4.97;4.47;;;13.90;99.90;;;;;;479275;248;28483;-70
2021/08/18 05:35:41;;;;;;;5.40;4.87;;;13.90;99.90;;;;;;479338;248;28923;-71
2021/08/18 05:37:42;;;;;;;6.80;6.10;;;13.90;99.90;;;;;;479302;248;28567;-70
2021/08/18 05:39:43;;;;;;;5.40;4.90;;;13.90;99.90;;;;;;479301;248;28480;-70
2021/08/18 05:41:44;;;;;;;6.10;5.50;;;13.90;99.90;;;;;;479302;248;28925;-70
2021/08/18 05:43:46;;;;;;;6.57;5.87;;;13.90;99.90;;;;;;479298;248;29371;-70
2021/08/18 05:45:47;;;;;;;5.57;5.03;;;13.90;99.90;;;;;;479281;248;29033;-71
2021/08/18 05:47:48;;;;;;;7.73;6.43;;;14.00;99.90;;;;;;479338;248;28981;-71
2021/08/18 05:49:49;;;;;;;8.90;6.53;;;14.00;99.90;;;;;;479328;248;28916;-70
2021/08/18 05:51:51;;;;;;;7.27;6.57;;;14.00;99.90;;;;;;479268;248;28882;-70
2021/08/18 05:53:52;;;;;;;6.60;6.00;;;14.00;99.90;;;;;;479297;248;28383;-70
2021/08/18 05:55:53;;;;;;;7.90;7.10;;;14.00;99.90;;;;;;479288;248;28841;-70
2021/08/18 05:57:54;;;;;;;8.47;6.90;;;14.00;99.90;;;;;;479318;248;28878;-69
2021/08/18 05:59:56;;;;;;;8.03;6.90;;;14.00;99.90;;;;;;479342;248;28336;-70
2021/08/18 06:01:57;;;;;;;8.20;6.43;;;14.10;99.90;;;;;;479290;248;28547;-71
2021/08/18 06:03:58;;;;;;;8.30;6.90;;;14.10;99.90;;;;;;479310;246;28889;-72
2021/08/18 06:05:59;;;;;;;7.53;6.83;;;14.10;99.90;;;;;;479310;248;28349;-69
2021/08/18 06:08:01;;;;;;;7.57;5.90;;;14.10;99.90;;;;;;479325;248;29364;-70
2021/08/18 06:10:02;;;;;;;6.83;6.10;;;14.10;99.90;;;;;;479327;248;29371;-70
2021/08/18 06:12:03;;;;;;;6.67;5.73;;;14.00;99.90;;;;;;479281;248;29335;-70
2021/08/18 06:14:04;;;;;;;6.23;5.63;;;14.10;99.90;;;;;;479276;248;28955;-70
2021/08/18 06:16:06;;;;;;;5.10;4.60;;;14.20;99.90;;;;;;479314;248;28889;-70
2021/08/18 06:18:07;;;;;;;5.47;4.77;;;14.20;99.90;;;;;;490234;241;28787;-70
2021/08/18 06:20:08;;;;;;;7.20;5.20;;;14.20;99.90;;;;;;491806;242;28770;-70
2021/08/18 06:22:10;;;;;;;4.90;4.43;;;14.10;99.90;;;;;;491681;242;28713;-71
2021/08/18 06:24:26;;;;;;;5.13;4.63;;;14.10;99.90;;;;;;491770;242;28450;-72
2021/08/18 06:26:15;;;;;;;4.30;3.90;;;14.10;99.90;;;;;;490866;242;28488;-72
2021/08/18 06:28:16;;;;;;;4.50;3.70;;;14.20;99.90;;;;;;491792;241;28515;-72
2021/08/18 06:30:17;;;;;;;4.03;3.63;;;14.20;99.90;;;;;;491802;242;28939;-72
2021/08/18 06:32:19;;;;;;;4.57;4.13;;;14.10;99.90;;;;;;491765;242;29345;-72
2021/08/18 06:34:21;;;;;;;6.07;4.40;;;14.20;99.90;;;;;;491783;242;29941;-71
2021/08/18 06:36:21;;;;;;;4.57;4.10;;;14.20;99.90;;;;;;491755;242;29236;-71
2021/08/18 06:38:22;;;;;;;4.53;4.13;;;14.20;99.90;;;;;;491742;242;28971;-71
2021/08/18 06:40:24;;;;;;;4.70;4.30;;;14.20;99.90;;;;;;491800;242;28813;-71
2021/08/18 06:42:25;;;;;;;4.60;3.93;;;14.20;99.90;;;;;;491822;242;28618;-71
2021/08/18 06:44:26;;;;;;;4.33;3.70;;;14.30;99.90;;;;;;491794;242;28853;-71
2021/08/18 06:46:27;;;;;;;4.63;4.20;;;14.40;99.90;;;;;;491842;242;28731;-72
2021/08/18 06:48:29;;;;;;;4.27;3.90;;;14.50;99.90;;;;;;491795;242;28366;-71
2021/08/18 06:50:30;;;;;;;4.50;4.10;;;14.50;99.90;;;;;;491856;242;28739;-71
2021/08/18 06:52:31;;;;;;;5.30;4.80;;;14.40;99.90;;;;;;491843;242;28747;-71
2021/08/18 06:54:32;;;;;;;4.63;4.23;;;14.40;99.90;;;;;;491805;242;28740;-72
2021/08/18 06:56:34;;;;;;;5.40;4.87;;;14.40;99.90;;;;;;491849;242;29167;-71
2021/08/18 06:58:37;;;;;;;5.37;4.90;;;14.40;99.90;;;;;;491818;242;29258;-71
2021/08/18 07:00:36;;;;;;;4.60;4.20;;;14.50;99.90;;;;;;491740;242;29175;-71
2021/08/18 07:02:37;;;;;;;5.27;4.77;;;14.50;99.90;;;;;;491844;242;28751;-71
2021/08/18 07:04:39;;;;;;;6.30;5.00;;;14.50;99.90;;;;;;491820;242;28742;-70
2021/08/18 07:06:40;;;;;;;4.37;4.00;;;14.50;99.90;;;;;;491825;242;28800;-72
2021/08/18 07:08:41;;;;;;;4.90;4.40;;;14.50;99.90;;;;;;491830;242;28850;-71
2021/08/18 07:10:42;;;;;;;4.83;4.43;;;14.50;99.90;;;;;;491796;242;28817;-71
2021/08/18 07:12:44;;;;;;;4.50;3.77;;;14.50;99.90;;;;;;491780;242;28755;-70
2021/08/18 07:14:45;;;;;;;4.13;3.80;;;14.60;99.90;;;;;;491803;242;28830;-72
2021/08/18 07:16:46;;;;;;;4.40;4.00;;;14.60;99.90;;;;;;491830;242;28802;-70
2021/08/18 07:18:47;;;;;;;4.90;4.00;;;14.50;99.90;;;;;;491805;242;28752;-70
2021/08/18 07:20:49;;;;;;;4.70;4.30;;;14.50;99.90;;;;;;491785;242;29266;-70
2021/08/18 07:22:50;;;;;;;5.30;4.30;;;14.40;99.90;;;;;;491800;242;29222;-70
2021/08/18 07:24:51;;;;;;;4.73;4.30;;;14.50;99.90;;;;;;491821;242;29021;-72
2021/08/18 07:26:53;;;;;;;4.37;3.97;;;14.50;99.90;;;;;;491838;242;28708;-72
2021/08/18 07:28:54;;;;;;;4.27;3.87;;;14.50;99.90;;;;;;491829;242;28815;-72
2021/08/18 07:30:55;;;;;;;4.67;4.27;;;14.50;99.90;;;;;;491815;242;28719;-71
2021/08/18 07:32:56;;;;;;;4.20;3.80;;;14.60;99.90;;;;;;491809;242;28462;-71
2021/08/18 07:34:58;;;;;;;4.73;4.23;;;14.60;99.90;;;;;;491800;242;28830;-71
2021/08/18 07:36:59;;;;;;;5.10;4.60;;;14.50;99.90;;;;;;491825;242;28868;-71
2021/08/18 07:39:00;;;;;;;5.17;4.30;;;14.60;99.90;;;;;;491808;242;28762;-72
2021/08/18 07:41:01;;;;;;;4.47;4.07;;;14.60;99.90;;;;;;491782;242;29360;-71
2021/08/18 07:43:03;;;;;;;4.30;3.90;;;14.60;99.90;;;;;;491763;242;30130;-71
2021/08/18 07:45:07;;;;;;;4.50;4.10;;;;;;;;;;491823;242;29241;-71
2021/08/18 07:47:09;;;;;;;4.57;3.60;;;;;;;;;;491833;241;26285;-71
2021/08/18 07:49:11;;;;;;;5.13;3.80;;;;;;;;;;491825;241;27427;-71
2021/08/18 07:51:12;;;;;;;5.87;4.28;;;14.70;99.90;;;;;;491270;241;35707;-71
2021/08/18 07:53:13;;;;;;;5.35;4.00;;;14.70;99.90;;;;;;488950;242;36351;-71
2021/08/18 07:55:15;;;;;;;5.10;4.37;;;;;;;;;;491797;242;27980;-70
2021/08/18 07:57:16;;;;;;;5.47;4.23;;;14.70;99.90;;;;;;491792;241;27425;-70
2021/08/18 07:59:18;;;;;;;4.93;4.20;;;14.90;99.90;;;;;;491737;242;28708;-71
2021/08/18 08:01:19;;;;;;;5.03;4.17;;;15.00;99.90;;;;;;491801;242;28833;-72
2021/08/18 08:03:20;;;;;;;4.43;4.03;;;15.10;99.90;;;;;;491802;242;28850;-71
2021/08/18 08:05:21;;;;;;;6.40;5.10;;;15.20;99.90;;;;;;491823;242;28834;-71
2021/08/18 08:07:23;;;;;;;5.37;4.10;;;15.40;99.90;;;;;;491784;242;28831;-71
2021/08/18 08:09:24;;;;;;;4.10;3.70;;;15.60;99.90;;;;;;491812;242;28715;-71
2021/08/18 08:11:25;;;;;;;4.67;3.90;;;15.70;99.90;;;;;;484719;241;28884;-71
2021/08/18 08:13:26;;;;;;;5.37;3.70;;;15.80;99.90;;;;;;484349;244;28853;-71
2021/08/18 08:15:28;;;;;;;4.03;3.70;;;15.90;99.90;;;;;;479540;247;29210;-71
2021/08/18 08:17:29;;;;;;;4.40;4.00;;;15.90;99.90;;;;;;487544;244;29297;-71
2021/08/18 08:19:30;;;;;;;3.50;3.20;;;15.60;99.90;;;;;;487478;243;29322;-71
2021/08/18 08:21:31;;;;;;;3.70;3.40;;;15.60;99.90;;;;;;478016;245;29515;-71
2021/08/18 08:23:33;;;;;;;4.10;3.70;;;15.60;99.90;;;;;;476769;249;28923;-71
2021/08/18 08:25:34;;;;;;;4.03;3.70;;;15.60;99.90;;;;;;476802;249;28878;-71
2021/08/18 08:27:35;;;;;;;4.03;3.67;;;15.50;99.90;;;;;;476778;249;28913;-70
2021/08/18 08:29:36;;;;;;;3.90;3.60;;;15.70;99.90;;;;;;476787;249;28977;-71
2021/08/18 08:31:38;;;;;;;3.30;3.10;;;15.80;99.90;;;;;;476788;249;28928;-70
2021/08/18 08:33:39;;;;;;;3.80;3.40;;;15.80;99.90;;;;;;476810;249;28932;-71
2021/08/18 08:35:40;;;;;;;3.93;3.60;;;15.90;99.90;;;;;;476739;245;28898;-71
2021/08/18 08:37:41;;;;;;;3.30;3.07;;;15.90;99.90;;;;;;476726;249;28772;-70
2021/08/18 08:39:43;;;;;;;4.33;4.03;;;15.80;99.90;;;;;;476709;249;30276;-69
2021/08/18 08:41:44;;;;;;;3.60;3.40;;;15.70;99.90;;;;;;476705;249;29229;-70
2021/08/18 08:43:45;;;;;;;4.40;4.10;;;15.60;99.90;;;;;;476709;249;30164;-71
2021/08/18 08:45:47;;;;;;;4.37;4.00;;;15.60;99.90;;;;;;476686;249;29270;-72
2021/08/18 08:47:48;;;;;;;3.43;3.23;;;15.60;99.90;;;;;;476676;249;28799;-71
2021/08/18 08:49:49;;;;;;;3.83;3.47;;;15.50;99.90;;;;;;476655;249;28740;-72
2021/08/18 08:51:52;;;;;;;4.50;4.10;;;;;;;;;;476657;249;28809;-69
2021/08/18 08:53:56;;;;;;;3.93;3.20;;;;;;;;;;476662;249;26818;-71
2021/08/18 08:55:57;;;;;;;3.37;3.17;;;15.70;99.90;;;;;;476645;249;27281;-70
2021/08/18 08:57:58;;;;;;;3.67;3.37;;;15.60;99.90;;;;;;476700;249;29244;-71
2021/08/18 09:00:00;;;;;;;3.40;3.20;;;15.80;99.90;;;;;;476676;249;29284;-69
2021/08/18 09:02:03;;;;;;;3.30;3.07;;;;;;;;;;476688;249;29279;-71
2021/08/18 09:04:06;;;;;;;3.20;2.93;;;;;;;;;;476651;249;26430;-71
2021/08/18 09:06:08;;;;;;;3.33;3.03;;;;;;;;;;476686;249;26373;-71
2021/08/18 09:08:10;;;;;;;3.70;3.43;;;15.90;99.90;;;;;;476738;249;28640;-71
2021/08/18 09:10:11;;;;;;;3.43;3.10;;;15.90;99.90;;;;;;476710;249;29396;-71
2021/08/18 09:12:12;;;;;;;3.20;2.90;;;15.80;99.90;;;;;;476725;249;29331;-72
2021/08/18 09:14:13;;;;;;;3.00;2.80;;;15.80;99.90;;;;;;476712;249;28767;-71
2021/08/18 09:16:14;;;;;;;2.90;2.70;;;15.70;99.90;;;;;;476726;249;28787;-71
2021/08/18 09:18:16;;;;;;;2.97;2.77;;;15.60;99.90;;;;;;476718;249;28820;-71
2021/08/18 09:20:17;;;;;;;2.50;2.40;;;15.50;99.90;;;;;;476703;249;28751;-71
2021/08/18 09:22:18;;;;;;;3.17;2.97;;;15.50;99.90;;;;;;476703;249;28751;-71
2021/08/18 09:24:20;;;;;;;3.03;2.83;;;15.50;99.90;;;;;;476662;249;28809;-69
2021/08/18 09:26:21;;;;;;;3.00;2.80;;;15.60;99.90;;;;;;476719;249;28767;-70
2021/08/18 09:28:22;;;;;;;3.13;2.83;;;15.50;99.90;;;;;;476734;249;28766;-69
2021/08/18 09:30:23;;;;;;;3.00;2.80;;;15.70;99.90;;;;;;476708;249;28863;-69
2021/08/18 09:32:25;;;;;;;2.63;2.47;;;15.60;99.90;;;;;;476687;249;29803;-72
2021/08/18 09:34:27;;;;;;;2.77;2.60;;;;;;;;;;476705;249;29176;-72
2021/08/18 09:36:33;;;;;;;2.37;2.27;;;15.90;99.90;;;;;;476760;249;28022;-69
2021/08/18 09:38:32;;;;;;;2.77;2.57;;;16.00;99.90;;;;;;476626;249;29298;-70
2021/08/18 09:40:35;;;;;;;2.53;2.33;;;16.20;99.90;;;;;;476730;249;29272;-69
2021/08/18 09:42:35;;;;;;;2.30;2.20;;;16.20;99.90;;;;;;476653;249;29160;-70
2021/08/18 09:44:36;;;;;;;2.43;2.23;;;16.20;99.90;;;;;;476720;249;28726;-70
2021/08/18 09:46:37;;;;;;;2.40;2.23;;;16.40;99.90;;;;;;476734;249;28789;-70
2021/08/18 09:48:38;;;;;;;2.27;2.17;;;16.60;99.90;;;;;;476720;249;28720;-70
2021/08/18 09:50:40;;;;;;;2.70;2.50;;;16.70;99.90;;;;;;476708;249;28770;-70
2021/08/18 09:52:41;;;;;;;2.50;2.30;;;16.60;99.90;;;;;;476714;249;28856;-71
2021/08/18 09:54:42;;;;;;;2.70;2.50;;;16.60;99.90;;;;;;476745;249;28897;-70
2021/08/18 09:56:43;;;;;;;2.67;2.03;;;16.80;99.90;;;;;;476717;249;28779;-71
2021/08/18 09:58:45;;;;;;;2.77;2.57;;;16.90;99.90;;;;;;474726;250;28937;-71
2021/08/18 10:00:46;;;;;;;2.50;2.30;;;16.90;99.90;;;;;;482927;246;29320;-71
2021/08/18 10:02:47;;;;;;;2.80;2.60;;;16.90;99.90;;;;;;474693;250;29547;-71
2021/08/18 10:04:48;;;;;;;2.57;2.37;;;17.00;99.90;;;;;;482950;246;29208;-71
2021/08/18 10:06:50;;;;;;;2.57;2.37;;;17.20;99.90;;;;;;474737;250;29403;-71
2021/08/18 10:08:54;;;;;;;2.27;2.17;;;17.50;99.90;;;;;;482958;246;28828;-71
2021/08/18 10:10:52;;;;;;;2.30;2.10;;;17.80;99.90;;;;;;474437;250;28902;-71
2021/08/18 10:12:53;;;;;;;4.03;2.13;;;18.00;99.90;;;;;;482977;246;28810;-71
2021/08/18 10:14:55;;;;;;;2.50;2.30;;;18.10;99.90;;;;;;474747;250;28929;-71
2021/08/18 10:16:56;;;;;;;2.13;2.03;;;18.00;99.90;;;;;;482969;246;28796;-71
2021/08/18 10:18:57;;;;;;;2.00;1.83;;;17.80;99.90;;;;;;474741;250;28891;-71
2021/08/18 10:20:58;;;;;;;2.23;2.13;;;17.70;99.90;;;;;;482941;246;28974;-72
2021/08/18 10:23:00;;;;;;;2.10;2.00;;;17.80;99.90;;;;;;474724;250;28918;-71
2021/08/18 10:25:01;;;;;;;2.47;2.27;;;17.90;99.90;;;;;;477493;247;28856;-71
2021/08/18 10:27:05;;;;;;;1.77;1.67;;;18.00;99.90;;;;;;473571;251;29327;-71
2021/08/18 10:29:06;;;;;;;2.20;2.10;;;18.00;99.90;;;;;;483651;246;29215;-72
2021/08/18 10:31:07;;;;;;;2.23;2.13;;;18.00;99.90;;;;;;483856;246;28690;-71
2021/08/18 10:33:09;;;;;;;1.93;1.83;;;18.10;99.90;;;;;;483850;246;28799;-71
2021/08/18 10:35:10;;;;;;;1.80;1.70;;;18.00;99.90;;;;;;483852;246;28809;-71